Aeroporto :
LOGIN :

Iscrizione | Disclaimer

   EN    FR    IT 

 










Sommario :    VFR   VFR Marginale   IFR   IFR Intensivo   IFR Molto Intensivo
Visibilità : 
Base nubi : 
>= 8 km
>= 3000ft
5 / 8 km
1000 / 3000 ft
1500m / 5 km
500 / 1000 ft
800 / 1500m
200 / 500 ft
< 800m
< 200 ft
Simboli :   Temporali  Nebbia  Neve Forte  Precipitazioni Forti  Vento > 20 kt
SIGMETs :   Varie  Temporali  Ghiacco  Turbolenza  Onda orograficha  Ceneri Vulcaniche






- Altitudine del aeroporto : 357 ft
- Codice IATA : TUF


LFOT - Tours

ULTIMO METAR :
  • 080730Z AUTO 05004KT 350V080 CAVOK M01/M03 Q1033 NOSIG

METARs OBSOLETI :
  • 080700Z AUTO 05005KT 020V080 CAVOK M01/M03 Q1033 NOSIG
  • 080630Z AUTO 04003KT 350V080 CAVOK M00/M03 Q1033 NOSIG
  • 080600Z AUTO 05003KT 020V080 CAVOK M01/M03 Q1033 NOSIG
  • 080530Z AUTO 04003KT 010V070 CAVOK M00/M03 Q1033 NOSIG
  • 080500Z AUTO 03005KT 360V070 CAVOK M00/M03 Q1033 NOSIG

TAF TAF LFOT
Valido dal 08 a 06 ore il 09 a 06 ore UTC


080500Z 0806/0906 04005KT CAVOK



MetMap, La meteo Aeronautica in un colpo d'occhio ! - Copyright ORBIFLY Dicembre 2007 - Disclaimer

ORBIFLY MET'MAP TEAM :

Programmazione e sviluppo : Alexandra Zaïnal
Concezione : Baudouin d'Aumeries
Supporto tecnico e logistico : Manuel Goepfert
Aiuto : Marc-Olivier Méhu
Aiuto per la traduzione : Arnaldo La Scala




FONTI E CREDITI :

   NOAA